Rechercher aéroport 
image banner adimage banner adimage banner ad
image banner ad

CL07 - Queen Mary

Situé à Long Beach, United States

ICAO - CL07, IATA -

Données fournies par Airmate  

Information générale

Coordonnées: N33°44'57" W118°11'25"
Élévation : 14 feet MSL.
Variation magnétique : 13° East
Voir autres Aéroports à California

Données opérationnelles

Special qualification required
Heure actuelle UTC:
Heure actuelle locale:
METAR: KLGB 262353Z 19008KT 10SM OVC026 24/17 A2993 RMK AO2 SLP134 60000 T02390167 10250 20228 55005
TAF: KLGB 262342Z 2700/2724 29008KT P6SM BKN020 OVC120 FM270400 VRB03KT P6SM OVC015 FM271800 21008KT P6SM SKC
Voir NOTAMs / SUP AIP / TFR affectant cet aéroport [VIEW]
Fréquences de communication: [VIEW]

Pistes:

Coordonnées de l'aéroport

Adresse: Long Beach United States

Vue satellite de CL07